sensor_id;sensor_type;location;lat;lon;timestamp;P1;durP1;ratioP1;P2;durP2;ratioP2
49123;SDS011;48506;48.202;16.274;2023-08-07T00:00:49;2.15;;;0.75;;
49123;SDS011;48506;48.202;16.274;2023-08-07T00:03:15;0.28;;;0.28;;
49123;SDS011;48506;48.202;16.274;2023-08-07T00:05:50;1.77;;;0.60;;
49123;SDS011;48506;48.202;16.274;2023-08-07T00:08:20;0.98;;;0.45;;
49123;SDS011;48506;48.202;16.274;2023-08-07T00:10:46;1.65;;;0.52;;
49123;SDS011;48506;48.202;16.274;2023-08-07T00:13:13;1.63;;;0.52;;
49123;SDS011;48506;48.202;16.274;2023-08-07T00:15:39;0.98;;;0.50;;
49123;SDS011;48506;48.202;16.274;2023-08-07T00:18:06;1.67;;;0.30;;
49123;SDS011;48506;48.202;16.274;2023-08-07T00:20:32;1.85;;;0.60;;
49123;SDS011;48506;48.202;16.274;2023-08-07T00:22:58;2.35;;;0.85;;
49123;SDS011;48506;48.202;16.274;2023-08-07T00:25:24;3.50;;;0.68;;
49123;SDS011;48506;48.202;16.274;2023-08-07T00:27:50;2.45;;;0.90;;
49123;SDS011;48506;48.202;16.274;2023-08-07T00:30:16;2.10;;;0.68;;
49123;SDS011;48506;48.202;16.274;2023-08-07T00:32:42;2.50;;;0.60;;
49123;SDS011;48506;48.202;16.274;2023-08-07T00:35:08;0.80;;;0.50;;
49123;SDS011;48506;48.202;16.274;2023-08-07T00:37:34;0.82;;;0.70;;
49123;SDS011;48506;48.202;16.274;2023-08-07T00:40:00;1.20;;;0.73;;
49123;SDS011;48506;48.202;16.274;2023-08-07T00:42:26;1.67;;;0.63;;
49123;SDS011;48506;48.202;16.274;2023-08-07T00:44:52;6.57;;;0.75;;
49123;SDS011;48506;48.202;16.274;2023-08-07T00:47:17;3.00;;;0.65;;
49123;SDS011;48506;48.202;16.274;2023-08-07T00:49:43;3.22;;;0.50;;
49123;SDS011;48506;48.202;16.274;2023-08-07T00:52:10;1.92;;;0.60;;
49123;SDS011;48506;48.202;16.274;2023-08-07T00:54:36;0.57;;;0.38;;
49123;SDS011;48506;48.202;16.274;2023-08-07T00:57:09;1.20;;;0.50;;
49123;SDS011;48506;48.202;16.274;2023-08-07T00:59:43;2.27;;;0.70;;
49123;SDS011;48506;48.202;16.274;2023-08-07T01:02:10;4.43;;;0.70;;
49123;SDS011;48506;48.202;16.274;2023-08-07T01:04:38;3.67;;;0.73;;
49123;SDS011;48506;48.202;16.274;2023-08-07T01:07:05;0.68;;;0.45;;
49123;SDS011;48506;48.202;16.274;2023-08-07T01:09:32;2.40;;;0.60;;
49123;SDS011;48506;48.202;16.274;2023-08-07T01:14:54;1.98;;;0.65;;
49123;SDS011;48506;48.202;16.274;2023-08-07T01:17:25;1.23;;;0.45;;
49123;SDS011;48506;48.202;16.274;2023-08-07T01:19:52;1.08;;;0.80;;
49123;SDS011;48506;48.202;16.274;2023-08-07T01:22:18;0.50;;;0.50;;
49123;SDS011;48506;48.202;16.274;2023-08-07T01:24:46;0.65;;;0.40;;
49123;SDS011;48506;48.202;16.274;2023-08-07T01:32:23;1.35;;;0.70;;
49123;SDS011;48506;48.202;16.274;2023-08-07T01:34:57;1.35;;;0.60;;
49123;SDS011;48506;48.202;16.274;2023-08-07T01:37:26;0.75;;;0.50;;
49123;SDS011;48506;48.202;16.274;2023-08-07T01:39:56;3.35;;;0.90;;
49123;SDS011;48506;48.202;16.274;2023-08-07T01:42:24;1.15;;;0.60;;
49123;SDS011;48506;48.202;16.274;2023-08-07T01:44:50;1.70;;;0.75;;
49123;SDS011;48506;48.202;16.274;2023-08-07T01:47:16;1.02;;;0.70;;
49123;SDS011;48506;48.202;16.274;2023-08-07T01:49:42;3.42;;;0.82;;
49123;SDS011;48506;48.202;16.274;2023-08-07T01:52:08;1.95;;;1.55;;
49123;SDS011;48506;48.202;16.274;2023-08-07T01:54:34;2.90;;;0.80;;
49123;SDS011;48506;48.202;16.274;2023-08-07T01:57:00;1.50;;;0.63;;
49123;SDS011;48506;48.202;16.274;2023-08-07T01:59:26;3.15;;;1.25;;
49123;SDS011;48506;48.202;16.274;2023-08-07T02:01:51;1.20;;;0.85;;
49123;SDS011;48506;48.202;16.274;2023-08-07T02:04:17;2.17;;;0.70;;
49123;SDS011;48506;48.202;16.274;2023-08-07T02:06:43;2.38;;;0.82;;
49123;SDS011;48506;48.202;16.274;2023-08-07T02:09:09;2.80;;;1.02;;
49123;SDS011;48506;48.202;16.274;2023-08-07T02:11:35;1.73;;;0.77;;
49123;SDS011;48506;48.202;16.274;2023-08-07T02:14:00;1.35;;;0.80;;
49123;SDS011;48506;48.202;16.274;2023-08-07T02:16:26;1.42;;;0.70;;
49123;SDS011;48506;48.202;16.274;2023-08-07T02:18:52;1.27;;;0.70;;
49123;SDS011;48506;48.202;16.274;2023-08-07T02:21:18;1.40;;;0.73;;
49123;SDS011;48506;48.202;16.274;2023-08-07T02:23:44;3.42;;;0.70;;
49123;SDS011;48506;48.202;16.274;2023-08-07T02:26:10;0.80;;;0.50;;
49123;SDS011;48506;48.202;16.274;2023-08-07T02:28:36;1.75;;;0.90;;
49123;SDS011;48506;48.202;16.274;2023-08-07T02:31:01;4.53;;;0.82;;
49123;SDS011;48506;48.202;16.274;2023-08-07T02:33:27;2.17;;;0.60;;
49123;SDS011;48506;48.202;16.274;2023-08-07T02:35:56;3.13;;;0.75;;
49123;SDS011;48506;48.202;16.274;2023-08-07T02:38:22;2.28;;;0.93;;
49123;SDS011;48506;48.202;16.274;2023-08-07T02:40:48;1.48;;;0.90;;
49123;SDS011;48506;48.202;16.274;2023-08-07T02:43:13;10.63;;;0.93;;
49123;SDS011;48506;48.202;16.274;2023-08-07T02:45:40;1.30;;;1.00;;
49123;SDS011;48506;48.202;16.274;2023-08-07T02:48:05;2.08;;;0.88;;
49123;SDS011;48506;48.202;16.274;2023-08-07T02:50:31;1.52;;;0.73;;
49123;SDS011;48506;48.202;16.274;2023-08-07T02:52:58;0.93;;;0.63;;
49123;SDS011;48506;48.202;16.274;2023-08-07T02:55:26;3.28;;;1.00;;
49123;SDS011;48506;48.202;16.274;2023-08-07T02:57:52;1.40;;;0.70;;
49123;SDS011;48506;48.202;16.274;2023-08-07T03:00:18;1.80;;;0.77;;
49123;SDS011;48506;48.202;16.274;2023-08-07T03:02:44;1.52;;;1.13;;
49123;SDS011;48506;48.202;16.274;2023-08-07T03:05:10;3.38;;;0.60;;
49123;SDS011;48506;48.202;16.274;2023-08-07T03:07:36;4.07;;;0.95;;
49123;SDS011;48506;48.202;16.274;2023-08-07T03:10:02;1.17;;;0.75;;
49123;SDS011;48506;48.202;16.274;2023-08-07T03:12:29;0.90;;;0.70;;
49123;SDS011;48506;48.202;16.274;2023-08-07T03:14:55;1.95;;;0.70;;
49123;SDS011;48506;48.202;16.274;2023-08-07T03:17:21;1.65;;;0.77;;
49123;SDS011;48506;48.202;16.274;2023-08-07T03:19:46;1.27;;;0.82;;
49123;SDS011;48506;48.202;16.274;2023-08-07T03:22:15;1.67;;;0.65;;
49123;SDS011;48506;48.202;16.274;2023-08-07T03:24:40;2.92;;;0.88;;
49123;SDS011;48506;48.202;16.274;2023-08-07T03:27:11;2.17;;;0.60;;
49123;SDS011;48506;48.202;16.274;2023-08-07T03:29:37;1.50;;;0.60;;
49123;SDS011;48506;48.202;16.274;2023-08-07T03:32:03;1.73;;;0.50;;
49123;SDS011;48506;48.202;16.274;2023-08-07T03:34:29;3.60;;;1.08;;
49123;SDS011;48506;48.202;16.274;2023-08-07T03:36:54;4.57;;;0.98;;
49123;SDS011;48506;48.202;16.274;2023-08-07T03:39:20;1.90;;;0.80;;
49123;SDS011;48506;48.202;16.274;2023-08-07T03:41:47;1.38;;;0.75;;
49123;SDS011;48506;48.202;16.274;2023-08-07T03:44:14;4.38;;;0.80;;
49123;SDS011;48506;48.202;16.274;2023-08-07T03:46:40;1.67;;;0.68;;
49123;SDS011;48506;48.202;16.274;2023-08-07T03:49:06;0.90;;;0.60;;
49123;SDS011;48506;48.202;16.274;2023-08-07T03:51:32;2.83;;;0.95;;
49123;SDS011;48506;48.202;16.274;2023-08-07T03:53:57;2.03;;;0.90;;
49123;SDS011;48506;48.202;16.274;2023-08-07T03:56:23;0.98;;;0.65;;
49123;SDS011;48506;48.202;16.274;2023-08-07T03:58:49;1.20;;;0.60;;
49123;SDS011;48506;48.202;16.274;2023-08-07T04:01:15;1.15;;;0.50;;
49123;SDS011;48506;48.202;16.274;2023-08-07T04:03:42;1.25;;;0.77;;
49123;SDS011;48506;48.202;16.274;2023-08-07T04:06:08;1.70;;;0.50;;
49123;SDS011;48506;48.202;16.274;2023-08-07T04:08:36;0.40;;;0.40;;
49123;SDS011;48506;48.202;16.274;2023-08-07T04:11:02;4.47;;;0.73;;
49123;SDS011;48506;48.202;16.274;2023-08-07T04:13:32;1.48;;;0.50;;
49123;SDS011;48506;48.202;16.274;2023-08-07T04:15:58;1.80;;;0.40;;
49123;SDS011;48506;48.202;16.274;2023-08-07T04:18:27;1.77;;;0.85;;
49123;SDS011;48506;48.202;16.274;2023-08-07T04:20:53;0.63;;;0.52;;
49123;SDS011;48506;48.202;16.274;2023-08-07T04:23:20;3.10;;;0.40;;
49123;SDS011;48506;48.202;16.274;2023-08-07T04:25:47;0.68;;;0.40;;
49123;SDS011;48506;48.202;16.274;2023-08-07T04:28:13;1.10;;;0.90;;
49123;SDS011;48506;48.202;16.274;2023-08-07T04:30:40;1.38;;;0.88;;
49123;SDS011;48506;48.202;16.274;2023-08-07T04:33:07;0.57;;;0.45;;
49123;SDS011;48506;48.202;16.274;2023-08-07T04:35:33;2.08;;;0.63;;
49123;SDS011;48506;48.202;16.274;2023-08-07T04:38:00;1.33;;;0.63;;
49123;SDS011;48506;48.202;16.274;2023-08-07T04:40:27;2.53;;;0.40;;
49123;SDS011;48506;48.202;16.274;2023-08-07T04:42:54;2.15;;;0.52;;
49123;SDS011;48506;48.202;16.274;2023-08-07T04:45:21;1.02;;;0.68;;
49123;SDS011;48506;48.202;16.274;2023-08-07T04:47:47;2.22;;;0.50;;
49123;SDS011;48506;48.202;16.274;2023-08-07T04:50:13;1.85;;;0.82;;
49123;SDS011;48506;48.202;16.274;2023-08-07T04:52:39;1.63;;;0.40;;
49123;SDS011;48506;48.202;16.274;2023-08-07T04:55:05;0.70;;;0.32;;
49123;SDS011;48506;48.202;16.274;2023-08-07T04:57:32;2.53;;;0.50;;
49123;SDS011;48506;48.202;16.274;2023-08-07T04:59:58;1.80;;;0.30;;
49123;SDS011;48506;48.202;16.274;2023-08-07T05:02:23;2.75;;;0.50;;
49123;SDS011;48506;48.202;16.274;2023-08-07T05:04:49;0.60;;;0.30;;
49123;SDS011;48506;48.202;16.274;2023-08-07T05:07:15;1.55;;;0.40;;
49123;SDS011;48506;48.202;16.274;2023-08-07T05:09:41;1.10;;;0.32;;
49123;SDS011;48506;48.202;16.274;2023-08-07T05:12:07;3.03;;;0.25;;
49123;SDS011;48506;48.202;16.274;2023-08-07T05:14:33;1.67;;;0.25;;
49123;SDS011;48506;48.202;16.274;2023-08-07T05:16:59;1.02;;;0.20;;
49123;SDS011;48506;48.202;16.274;2023-08-07T05:19:25;2.00;;;0.20;;
49123;SDS011;48506;48.202;16.274;2023-08-07T05:21:51;0.93;;;0.40;;
49123;SDS011;48506;48.202;16.274;2023-08-07T05:24:17;0.30;;;0.20;;
49123;SDS011;48506;48.202;16.274;2023-08-07T05:26:43;0.85;;;0.30;;
49123;SDS011;48506;48.202;16.274;2023-08-07T05:29:09;4.28;;;0.65;;
49123;SDS011;48506;48.202;16.274;2023-08-07T05:31:35;0.88;;;0.28;;
49123;SDS011;48506;48.202;16.274;2023-08-07T05:34:02;0.28;;;0.20;;
49123;SDS011;48506;48.202;16.274;2023-08-07T05:36:28;0.70;;;0.38;;
49123;SDS011;48506;48.202;16.274;2023-08-07T05:38:56;3.90;;;0.40;;
49123;SDS011;48506;48.202;16.274;2023-08-07T05:41:22;0.47;;;0.40;;
49123;SDS011;48506;48.202;16.274;2023-08-07T05:43:48;0.73;;;0.30;;
49123;SDS011;48506;48.202;16.274;2023-08-07T05:46:15;1.90;;;0.20;;
49123;SDS011;48506;48.202;16.274;2023-08-07T05:48:41;11.00;;;0.85;;
49123;SDS011;48506;48.202;16.274;2023-08-07T05:51:07;0.85;;;0.20;;
49123;SDS011;48506;48.202;16.274;2023-08-07T05:53:34;0.30;;;0.20;;
49123;SDS011;48506;48.202;16.274;2023-08-07T05:56:01;0.32;;;0.25;;
49123;SDS011;48506;48.202;16.274;2023-08-07T05:58:28;0.20;;;0.10;;
49123;SDS011;48506;48.202;16.274;2023-08-07T06:00:54;2.45;;;0.60;;
49123;SDS011;48506;48.202;16.274;2023-08-07T06:03:20;0.63;;;0.10;;
49123;SDS011;48506;48.202;16.274;2023-08-07T06:05:46;0.20;;;0.10;;
49123;SDS011;48506;48.202;16.274;2023-08-07T06:08:12;0.10;;;0.10;;
49123;SDS011;48506;48.202;16.274;2023-08-07T06:10:38;1.48;;;0.20;;
49123;SDS011;48506;48.202;16.274;2023-08-07T06:13:04;2.83;;;0.20;;
49123;SDS011;48506;48.202;16.274;2023-08-07T06:15:31;1.58;;;0.30;;
49123;SDS011;48506;48.202;16.274;2023-08-07T06:17:59;1.67;;;0.20;;
49123;SDS011;48506;48.202;16.274;2023-08-07T06:20:25;0.60;;;0.10;;
49123;SDS011;48506;48.202;16.274;2023-08-07T06:22:51;0.93;;;0.10;;
49123;SDS011;48506;48.202;16.274;2023-08-07T06:25:17;0.10;;;0.10;;
49123;SDS011;48506;48.202;16.274;2023-08-07T06:27:45;1.13;;;0.13;;
49123;SDS011;48506;48.202;16.274;2023-08-07T06:30:11;0.10;;;0.10;;
49123;SDS011;48506;48.202;16.274;2023-08-07T06:32:39;0.55;;;0.25;;
49123;SDS011;48506;48.202;16.274;2023-08-07T06:35:05;5.65;;;0.20;;
49123;SDS011;48506;48.202;16.274;2023-08-07T06:37:31;0.20;;;0.10;;
49123;SDS011;48506;48.202;16.274;2023-08-07T06:39:57;0.70;;;0.30;;
49123;SDS011;48506;48.202;16.274;2023-08-07T06:42:23;0.20;;;0.17;;
49123;SDS011;48506;48.202;16.274;2023-08-07T06:44:49;2.47;;;0.40;;
49123;SDS011;48506;48.202;16.274;2023-08-07T06:47:15;0.73;;;0.17;;
49123;SDS011;48506;48.202;16.274;2023-08-07T06:49:41;1.73;;;0.35;;
49123;SDS011;48506;48.202;16.274;2023-08-07T06:52:07;1.70;;;0.60;;
49123;SDS011;48506;48.202;16.274;2023-08-07T06:54:33;0.93;;;0.20;;
49123;SDS011;48506;48.202;16.274;2023-08-07T06:56:59;1.60;;;0.15;;
49123;SDS011;48506;48.202;16.274;2023-08-07T06:59:25;1.42;;;0.40;;
49123;SDS011;48506;48.202;16.274;2023-08-07T07:01:51;1.77;;;1.00;;
49123;SDS011;48506;48.202;16.274;2023-08-07T07:04:17;2.63;;;0.22;;
49123;SDS011;48506;48.202;16.274;2023-08-07T07:06:43;0.40;;;0.17;;
49123;SDS011;48506;48.202;16.274;2023-08-07T07:09:09;0.95;;;0.17;;
49123;SDS011;48506;48.202;16.274;2023-08-07T07:11:35;0.75;;;0.30;;
49123;SDS011;48506;48.202;16.274;2023-08-07T07:14:03;0.45;;;0.30;;
49123;SDS011;48506;48.202;16.274;2023-08-07T07:16:29;0.55;;;0.32;;
49123;SDS011;48506;48.202;16.274;2023-08-07T07:18:55;1.55;;;0.28;;
49123;SDS011;48506;48.202;16.274;2023-08-07T07:21:23;0.38;;;0.20;;
49123;SDS011;48506;48.202;16.274;2023-08-07T07:23:49;0.60;;;0.30;;
49123;SDS011;48506;48.202;16.274;2023-08-07T07:26:15;0.70;;;0.30;;
49123;SDS011;48506;48.202;16.274;2023-08-07T07:28:41;1.75;;;0.32;;
49123;SDS011;48506;48.202;16.274;2023-08-07T07:31:07;1.58;;;0.35;;
49123;SDS011;48506;48.202;16.274;2023-08-07T07:33:37;1.75;;;0.40;;
49123;SDS011;48506;48.202;16.274;2023-08-07T07:36:04;0.70;;;0.30;;
49123;SDS011;48506;48.202;16.274;2023-08-07T07:38:31;3.05;;;0.52;;
49123;SDS011;48506;48.202;16.274;2023-08-07T07:40:57;4.07;;;0.30;;
49123;SDS011;48506;48.202;16.274;2023-08-07T07:43:23;7.40;;;0.40;;
49123;SDS011;48506;48.202;16.274;2023-08-07T07:45:49;2.67;;;0.50;;
49123;SDS011;48506;48.202;16.274;2023-08-07T07:48:15;1.63;;;0.70;;
49123;SDS011;48506;48.202;16.274;2023-08-07T07:50:41;1.42;;;0.30;;
49123;SDS011;48506;48.202;16.274;2023-08-07T07:53:07;1.45;;;0.55;;
49123;SDS011;48506;48.202;16.274;2023-08-07T07:55:33;0.98;;;0.35;;
49123;SDS011;48506;48.202;16.274;2023-08-07T07:57:59;0.60;;;0.43;;
49123;SDS011;48506;48.202;16.274;2023-08-07T08:00:25;4.53;;;0.50;;
49123;SDS011;48506;48.202;16.274;2023-08-07T08:02:52;0.60;;;0.50;;
49123;SDS011;48506;48.202;16.274;2023-08-07T08:05:19;1.73;;;0.60;;
49123;SDS011;48506;48.202;16.274;2023-08-07T08:07:45;1.00;;;0.57;;
49123;SDS011;48506;48.202;16.274;2023-08-07T08:10:10;0.90;;;0.60;;
49123;SDS011;48506;48.202;16.274;2023-08-07T08:12:38;0.40;;;0.40;;
49123;SDS011;48506;48.202;16.274;2023-08-07T08:15:04;2.42;;;0.47;;
49123;SDS011;48506;48.202;16.274;2023-08-07T08:17:31;3.42;;;0.43;;
49123;SDS011;48506;48.202;16.274;2023-08-07T08:19:57;0.85;;;0.50;;
49123;SDS011;48506;48.202;16.274;2023-08-07T08:22:23;1.30;;;0.35;;
49123;SDS011;48506;48.202;16.274;2023-08-07T08:24:49;0.55;;;0.40;;
49123;SDS011;48506;48.202;16.274;2023-08-07T08:27:15;1.35;;;0.60;;
49123;SDS011;48506;48.202;16.274;2023-08-07T08:29:43;1.42;;;0.50;;
49123;SDS011;48506;48.202;16.274;2023-08-07T08:32:10;0.40;;;0.30;;
49123;SDS011;48506;48.202;16.274;2023-08-07T08:34:36;1.42;;;0.60;;
49123;SDS011;48506;48.202;16.274;2023-08-07T08:37:02;3.60;;;0.70;;
49123;SDS011;48506;48.202;16.274;2023-08-07T08:39:31;1.17;;;0.70;;
49123;SDS011;48506;48.202;16.274;2023-08-07T08:41:57;2.55;;;0.60;;
49123;SDS011;48506;48.202;16.274;2023-08-07T08:44:24;1.63;;;0.50;;
49123;SDS011;48506;48.202;16.274;2023-08-07T08:46:55;1.40;;;0.85;;
49123;SDS011;48506;48.202;16.274;2023-08-07T08:49:28;0.65;;;0.50;;
49123;SDS011;48506;48.202;16.274;2023-08-07T08:51:58;2.55;;;0.63;;
49123;SDS011;48506;48.202;16.274;2023-08-07T08:54:25;1.60;;;0.90;;
49123;SDS011;48506;48.202;16.274;2023-08-07T08:56:52;2.53;;;0.60;;
49123;SDS011;48506;48.202;16.274;2023-08-07T08:59:21;4.25;;;0.60;;
49123;SDS011;48506;48.202;16.274;2023-08-07T09:01:48;1.65;;;1.08;;
49123;SDS011;48506;48.202;16.274;2023-08-07T09:06:44;0.50;;;0.47;;
49123;SDS011;48506;48.202;16.274;2023-08-07T09:09:12;2.30;;;0.85;;
49123;SDS011;48506;48.202;16.274;2023-08-07T09:11:42;0.60;;;0.60;;
49123;SDS011;48506;48.202;16.274;2023-08-07T09:14:15;1.02;;;0.93;;
49123;SDS011;48506;48.202;16.274;2023-08-07T09:16:51;1.48;;;0.60;;
49123;SDS011;48506;48.202;16.274;2023-08-07T09:19:18;6.32;;;0.80;;
49123;SDS011;48506;48.202;16.274;2023-08-07T09:21:45;1.45;;;0.60;;
49123;SDS011;48506;48.202;16.274;2023-08-07T09:24:10;2.20;;;0.82;;
49123;SDS011;48506;48.202;16.274;2023-08-07T09:26:37;1.42;;;0.68;;
49123;SDS011;48506;48.202;16.274;2023-08-07T09:29:09;0.80;;;0.60;;
49123;SDS011;48506;48.202;16.274;2023-08-07T09:31:36;3.58;;;1.88;;
49123;SDS011;48506;48.202;16.274;2023-08-07T09:34:03;1.25;;;0.80;;
49123;SDS011;48506;48.202;16.274;2023-08-07T09:36:33;2.90;;;0.90;;
49123;SDS011;48506;48.202;16.274;2023-08-07T09:39:00;5.78;;;1.05;;
49123;SDS011;48506;48.202;16.274;2023-08-07T09:41:28;1.20;;;0.65;;
49123;SDS011;48506;48.202;16.274;2023-08-07T09:43:59;0.95;;;0.65;;
49123;SDS011;48506;48.202;16.274;2023-08-07T09:46:40;1.13;;;0.68;;
49123;SDS011;48506;48.202;16.274;2023-08-07T09:49:08;2.05;;;0.88;;
49123;SDS011;48506;48.202;16.274;2023-08-07T09:51:52;1.33;;;0.93;;
49123;SDS011;48506;48.202;16.274;2023-08-07T09:54:18;0.90;;;0.80;;
49123;SDS011;48506;48.202;16.274;2023-08-07T09:56:44;0.95;;;0.70;;
49123;SDS011;48506;48.202;16.274;2023-08-07T09:59:13;1.77;;;0.73;;
49123;SDS011;48506;48.202;16.274;2023-08-07T10:01:39;1.35;;;0.70;;
49123;SDS011;48506;48.202;16.274;2023-08-07T10:04:08;0.98;;;0.75;;
49123;SDS011;48506;48.202;16.274;2023-08-07T10:06:41;1.13;;;0.70;;
49123;SDS011;48506;48.202;16.274;2023-08-07T10:09:09;2.20;;;0.80;;
49123;SDS011;48506;48.202;16.274;2023-08-07T10:11:35;2.80;;;1.58;;
49123;SDS011;48506;48.202;16.274;2023-08-07T10:14:03;5.03;;;1.20;;
49123;SDS011;48506;48.202;16.274;2023-08-07T10:16:31;1.20;;;0.75;;
49123;SDS011;48506;48.202;16.274;2023-08-07T10:18:58;2.97;;;0.90;;
49123;SDS011;48506;48.202;16.274;2023-08-07T10:21:24;1.10;;;0.80;;
49123;SDS011;48506;48.202;16.274;2023-08-07T10:23:52;1.15;;;0.85;;
49123;SDS011;48506;48.202;16.274;2023-08-07T10:28:49;2.05;;;1.10;;
49123;SDS011;48506;48.202;16.274;2023-08-07T10:31:17;2.23;;;1.17;;
49123;SDS011;48506;48.202;16.274;2023-08-07T10:33:46;1.38;;;0.93;;
49123;SDS011;48506;48.202;16.274;2023-08-07T10:36:12;3.22;;;1.20;;
49123;SDS011;48506;48.202;16.274;2023-08-07T10:38:40;3.10;;;1.13;;
49123;SDS011;48506;48.202;16.274;2023-08-07T10:41:10;1.63;;;0.90;;
49123;SDS011;48506;48.202;16.274;2023-08-07T10:43:42;2.38;;;1.20;;
49123;SDS011;48506;48.202;16.274;2023-08-07T10:46:14;1.05;;;0.80;;
49123;SDS011;48506;48.202;16.274;2023-08-07T10:48:44;1.63;;;1.13;;
49123;SDS011;48506;48.202;16.274;2023-08-07T10:51:16;2.20;;;1.27;;
49123;SDS011;48506;48.202;16.274;2023-08-07T10:53:43;2.92;;;1.30;;
49123;SDS011;48506;48.202;16.274;2023-08-07T10:56:15;4.53;;;1.02;;
49123;SDS011;48506;48.202;16.274;2023-08-07T10:58:47;1.77;;;1.27;;
49123;SDS011;48506;48.202;16.274;2023-08-07T11:01:18;2.80;;;1.27;;
49123;SDS011;48506;48.202;16.274;2023-08-07T11:03:54;1.48;;;1.15;;
49123;SDS011;48506;48.202;16.274;2023-08-07T11:06:25;4.68;;;1.15;;
49123;SDS011;48506;48.202;16.274;2023-08-07T11:08:57;3.42;;;1.17;;
49123;SDS011;48506;48.202;16.274;2023-08-07T11:11:24;2.38;;;1.10;;
49123;SDS011;48506;48.202;16.274;2023-08-07T11:13:52;1.80;;;1.23;;
49123;SDS011;48506;48.202;16.274;2023-08-07T11:16:18;3.40;;;1.65;;
49123;SDS011;48506;48.202;16.274;2023-08-07T11:18:46;1.90;;;1.25;;
49123;SDS011;48506;48.202;16.274;2023-08-07T11:21:14;1.92;;;1.20;;
49123;SDS011;48506;48.202;16.274;2023-08-07T11:23:40;3.38;;;1.40;;
49123;SDS011;48506;48.202;16.274;2023-08-07T11:26:07;2.25;;;1.40;;
49123;SDS011;48506;48.202;16.274;2023-08-07T11:28:35;1.25;;;0.93;;
49123;SDS011;48506;48.202;16.274;2023-08-07T11:31:02;1.88;;;1.52;;
49123;SDS011;48506;48.202;16.274;2023-08-07T11:33:28;2.50;;;1.27;;
49123;SDS011;48506;48.202;16.274;2023-08-07T11:35:54;2.97;;;1.23;;
49123;SDS011;48506;48.202;16.274;2023-08-07T11:38:30;1.35;;;1.10;;
49123;SDS011;48506;48.202;16.274;2023-08-07T11:41:05;2.47;;;1.33;;
49123;SDS011;48506;48.202;16.274;2023-08-07T11:43:32;5.38;;;1.63;;
49123;SDS011;48506;48.202;16.274;2023-08-07T11:46:03;4.05;;;1.60;;
49123;SDS011;48506;48.202;16.274;2023-08-07T11:48:31;4.05;;;1.40;;
49123;SDS011;48506;48.202;16.274;2023-08-07T11:50:59;2.17;;;1.23;;
49123;SDS011;48506;48.202;16.274;2023-08-07T11:53:27;2.03;;;1.40;;
49123;SDS011;48506;48.202;16.274;2023-08-07T11:58:24;1.95;;;1.45;;
49123;SDS011;48506;48.202;16.274;2023-08-07T12:00:51;2.60;;;1.35;;
49123;SDS011;48506;48.202;16.274;2023-08-07T12:03:25;2.65;;;1.20;;
49123;SDS011;48506;48.202;16.274;2023-08-07T12:05:56;1.38;;;1.10;;
49123;SDS011;48506;48.202;16.274;2023-08-07T12:08:25;2.53;;;1.50;;
49123;SDS011;48506;48.202;16.274;2023-08-07T12:10:58;2.10;;;1.23;;
49123;SDS011;48506;48.202;16.274;2023-08-07T12:13:28;4.43;;;1.35;;
49123;SDS011;48506;48.202;16.274;2023-08-07T12:15:57;1.38;;;1.25;;
49123;SDS011;48506;48.202;16.274;2023-08-07T12:18:24;3.55;;;1.58;;
49123;SDS011;48506;48.202;16.274;2023-08-07T12:20:52;1.77;;;1.65;;
49123;SDS011;48506;48.202;16.274;2023-08-07T12:23:26;2.03;;;1.23;;
49123;SDS011;48506;48.202;16.274;2023-08-07T12:25:52;2.50;;;1.73;;
49123;SDS011;48506;48.202;16.274;2023-08-07T12:28:19;2.72;;;1.50;;
49123;SDS011;48506;48.202;16.274;2023-08-07T12:30:45;1.83;;;1.27;;
49123;SDS011;48506;48.202;16.274;2023-08-07T12:33:12;3.83;;;1.80;;
49123;SDS011;48506;48.202;16.274;2023-08-07T12:35:39;3.47;;;1.52;;
49123;SDS011;48506;48.202;16.274;2023-08-07T12:38:07;4.18;;;2.00;;
49123;SDS011;48506;48.202;16.274;2023-08-07T12:40:34;2.58;;;1.60;;
49123;SDS011;48506;48.202;16.274;2023-08-07T12:43:04;2.65;;;1.48;;
49123;SDS011;48506;48.202;16.274;2023-08-07T12:45:30;3.67;;;1.80;;
49123;SDS011;48506;48.202;16.274;2023-08-07T12:47:56;4.57;;;1.80;;
49123;SDS011;48506;48.202;16.274;2023-08-07T12:50:22;2.35;;;1.52;;
49123;SDS011;48506;48.202;16.274;2023-08-07T12:52:49;3.15;;;1.55;;
49123;SDS011;48506;48.202;16.274;2023-08-07T12:55:15;2.83;;;1.67;;
49123;SDS011;48506;48.202;16.274;2023-08-07T12:57:42;2.42;;;1.95;;
49123;SDS011;48506;48.202;16.274;2023-08-07T13:00:12;4.93;;;1.77;;
49123;SDS011;48506;48.202;16.274;2023-08-07T13:02:42;2.85;;;1.73;;
49123;SDS011;48506;48.202;16.274;2023-08-07T13:05:09;2.88;;;1.60;;
49123;SDS011;48506;48.202;16.274;2023-08-07T13:07:38;3.75;;;1.90;;
49123;SDS011;48506;48.202;16.274;2023-08-07T13:10:05;5.55;;;1.80;;
49123;SDS011;48506;48.202;16.274;2023-08-07T13:12:36;1.55;;;1.42;;
49123;SDS011;48506;48.202;16.274;2023-08-07T13:15:03;1.85;;;1.38;;
49123;SDS011;48506;48.202;16.274;2023-08-07T13:17:32;3.00;;;1.77;;
49123;SDS011;48506;48.202;16.274;2023-08-07T13:19:58;1.75;;;1.48;;
49123;SDS011;48506;48.202;16.274;2023-08-07T13:22:25;2.65;;;1.70;;
49123;SDS011;48506;48.202;16.274;2023-08-07T13:24:52;3.17;;;1.35;;
49123;SDS011;48506;48.202;16.274;2023-08-07T13:27:18;2.25;;;1.50;;
49123;SDS011;48506;48.202;16.274;2023-08-07T13:29:44;4.30;;;2.45;;
49123;SDS011;48506;48.202;16.274;2023-08-07T13:32:10;3.15;;;1.55;;
49123;SDS011;48506;48.202;16.274;2023-08-07T13:34:36;2.17;;;1.45;;
49123;SDS011;48506;48.202;16.274;2023-08-07T13:37:03;2.20;;;1.33;;
49123;SDS011;48506;48.202;16.274;2023-08-07T13:39:30;2.67;;;1.30;;
49123;SDS011;48506;48.202;16.274;2023-08-07T13:41:57;2.65;;;1.52;;
49123;SDS011;48506;48.202;16.274;2023-08-07T13:44:23;3.67;;;1.73;;
49123;SDS011;48506;48.202;16.274;2023-08-07T13:46:50;7.03;;;1.77;;
49123;SDS011;48506;48.202;16.274;2023-08-07T13:49:17;2.53;;;1.77;;
49123;SDS011;48506;48.202;16.274;2023-08-07T13:51:43;2.08;;;1.38;;
49123;SDS011;48506;48.202;16.274;2023-08-07T13:54:09;4.28;;;1.50;;
49123;SDS011;48506;48.202;16.274;2023-08-07T13:56:35;1.65;;;1.33;;
49123;SDS011;48506;48.202;16.274;2023-08-07T13:59:02;2.55;;;1.33;;
49123;SDS011;48506;48.202;16.274;2023-08-07T14:01:28;3.45;;;1.48;;
49123;SDS011;48506;48.202;16.274;2023-08-07T14:03:55;2.22;;;1.35;;
49123;SDS011;48506;48.202;16.274;2023-08-07T14:06:21;1.20;;;1.10;;
49123;SDS011;48506;48.202;16.274;2023-08-07T14:08:47;1.67;;;1.15;;
49123;SDS011;48506;48.202;16.274;2023-08-07T14:11:14;1.45;;;1.00;;
49123;SDS011;48506;48.202;16.274;2023-08-07T14:13:41;3.35;;;1.55;;
49123;SDS011;48506;48.202;16.274;2023-08-07T14:16:09;2.30;;;1.58;;
49123;SDS011;48506;48.202;16.274;2023-08-07T14:18:35;2.70;;;2.17;;
49123;SDS011;48506;48.202;16.274;2023-08-07T14:21:01;2.20;;;1.48;;
49123;SDS011;48506;48.202;16.274;2023-08-07T14:23:27;3.17;;;1.88;;
49123;SDS011;48506;48.202;16.274;2023-08-07T14:25:53;2.75;;;1.42;;
49123;SDS011;48506;48.202;16.274;2023-08-07T14:28:19;3.17;;;1.23;;
49123;SDS011;48506;48.202;16.274;2023-08-07T14:30:47;2.75;;;1.30;;
49123;SDS011;48506;48.202;16.274;2023-08-07T14:33:13;2.33;;;1.80;;
49123;SDS011;48506;48.202;16.274;2023-08-07T14:35:39;6.97;;;1.70;;
49123;SDS011;48506;48.202;16.274;2023-08-07T14:38:05;2.42;;;1.50;;
49123;SDS011;48506;48.202;16.274;2023-08-07T14:40:31;2.30;;;1.25;;
49123;SDS011;48506;48.202;16.274;2023-08-07T14:42:57;2.35;;;2.08;;
49123;SDS011;48506;48.202;16.274;2023-08-07T14:45:23;3.05;;;1.50;;
49123;SDS011;48506;48.202;16.274;2023-08-07T14:47:49;2.22;;;1.48;;